Pagina principale
METAR-TAF:

METAR-TAF

Aeroporti :

Aeroporto di Lugano-Agno

Lugano, Svizzera

latitudine: 46-00N, longitudine: 008-58E, altezza: 273 m

Osservazione

Il bollettino è stato emesso 15 minuti fa, alle 20:20 UTC
Vento 1 kt da direzioni variabili
Temperature 10°C
Umidità 93%
Pressione 1025 hPa
Visibilità 10 km o più
Cielo coperto ad un'altezza di 6500 ft

METAR: LSZA 202020Z AUTO VRB01KT 9999 OVC065 10/09 Q1025

Ora: 22:35 (20:35 UTC)

Previsione

Il bollettino è stato emesso 6 ore e 10 minuti fa, alle 14:25 UTC
Previsione valida dal 20 alle 15 UTC al 20 alle 24 UTC
Vento 3 kt da direzioni variabili
Visibilità 10 km o più
Cielo coperto ad un'altezza di 6500 ft

TAF: LSZA 201425Z 2015/2024 VRB03KT 9999 OVC065

Osservazioni e previsioni meteorologiche di più di 4000 aeroporti (messaggi METAR e TAF).

Le stazioni disponibili sono rappresentate dai dischi gialli e rossi sulla carta.

Puntare il mouse per vedere il nome della stazione.

Clicca sopra per visualizzare le osservazioni e previsioni meteorologiche.

Per cambiare la mappa : fare clic sui pulsanti verdi con una croce nera per ingrandire, il pulsante verde con un trattino per diminuire, o sulla freccia verde per le mappe adiacenti.


METAR-TAF: